createdAt,value
2019-02-27T00:01:00.547Z,13.77
2019-02-27T00:03:29.721Z,15.57
2019-02-27T00:05:58.562Z,16.50
2019-02-27T00:08:27.524Z,15.13
2019-02-27T00:10:56.374Z,14.40
2019-02-27T00:13:25.482Z,12.97
2019-02-27T00:15:54.297Z,14.97
2019-02-27T00:18:23.971Z,15.17
2019-02-27T00:20:53.346Z,14.50
2019-02-27T00:23:24.059Z,14.40
2019-02-27T00:25:52.576Z,13.93
2019-02-27T00:28:23.342Z,14.07
2019-02-27T00:30:51.761Z,15.53
2019-02-27T00:33:24.908Z,14.97
2019-02-27T00:35:50.898Z,14.27
2019-02-27T00:38:19.639Z,14.27
2019-02-27T00:40:48.470Z,14.67
2019-02-27T00:43:17.173Z,15.07
2019-02-27T00:45:45.907Z,14.77
2019-02-27T00:48:14.695Z,14.97
2019-02-27T00:50:43.431Z,14.80
2019-02-27T00:53:12.210Z,14.40
2019-02-27T00:55:41.030Z,15.07
2019-02-27T00:58:09.869Z,15.47
2019-02-27T01:00:39.337Z,14.70
2019-02-27T01:03:08.826Z,14.37
2019-02-27T01:05:40.973Z,16.47
2019-02-27T01:08:07.976Z,14.77
2019-02-27T01:10:36.737Z,14.00
2019-02-27T01:13:05.532Z,13.07
2019-02-27T01:15:34.253Z,15.77
2019-02-27T01:18:03.050Z,14.23
2019-02-27T01:20:31.826Z,15.53
2019-02-27T01:23:00.551Z,15.87
2019-02-27T01:25:29.270Z,15.47
2019-02-27T01:27:58.066Z,14.53
2019-02-27T01:30:26.790Z,15.80
2019-02-27T01:32:55.617Z,15.33
2019-02-27T01:35:24.400Z,15.23
2019-02-27T01:37:53.213Z,15.07
2019-02-27T01:40:22.053Z,14.67
2019-02-27T01:42:50.773Z,15.50
2019-02-27T01:45:21.097Z,16.70
2019-02-27T01:47:49.971Z,17.00
2019-02-27T01:50:44.041Z,15.90
2019-02-27T01:53:12.849Z,15.20
2019-02-27T01:55:41.659Z,15.30
2019-02-27T01:58:10.516Z,15.57
2019-02-27T02:00:39.289Z,16.07
2019-02-27T02:03:08.023Z,14.40
2019-02-27T02:05:36.795Z,14.97
2019-02-27T02:08:07.587Z,16.30
2019-02-27T02:10:36.444Z,13.80
2019-02-27T02:13:14.779Z,14.20
2019-02-27T02:15:46.597Z,14.80
2019-02-27T02:18:48.150Z,13.77
2019-02-27T02:21:34.349Z,13.83
2019-02-27T02:24:29.016Z,13.43
2019-02-27T02:27:16.921Z,15.03
2019-02-27T02:29:59.291Z,14.93
2019-02-27T02:32:51.964Z,15.23
2019-02-27T02:35:26.170Z,15.67
2019-02-27T02:38:16.333Z,15.40
2019-02-27T02:41:07.922Z,13.90
2019-02-27T02:43:52.394Z,14.43
2019-02-27T02:46:45.340Z,14.70
2019-02-27T02:49:16.844Z,14.17
2019-02-27T02:52:10.786Z,14.90
2019-02-27T02:54:53.741Z,15.43
2019-02-27T02:57:44.232Z,14.90
2019-02-27T03:00:34.817Z,13.77
2019-02-27T03:03:35.821Z,14.20
2019-02-27T03:06:19.791Z,14.80
2019-02-27T03:09:30.047Z,14.77
2019-02-27T03:12:30.981Z,14.37
2019-02-27T03:15:16.226Z,13.70
2019-02-27T03:17:54.871Z,14.40
2019-02-27T03:20:27.748Z,12.97
2019-02-27T03:23:02.801Z,14.10
2019-02-27T03:25:45.341Z,12.87
2019-02-27T03:28:32.064Z,15.03
2019-02-27T03:31:16.256Z,15.60
2019-02-27T03:34:05.672Z,14.47
2019-02-27T03:36:39.030Z,14.03
2019-02-27T03:39:13.894Z,14.03
2019-02-27T03:42:04.797Z,13.73
2019-02-27T03:44:38.644Z,13.60
2019-02-27T03:47:25.179Z,13.30
2019-02-27T03:50:00.631Z,13.00
2019-02-27T03:52:37.438Z,14.13
2019-02-27T03:55:43.765Z,14.27
2019-02-27T03:58:20.237Z,13.30
2019-02-27T04:01:03.490Z,14.97
2019-02-27T04:03:55.316Z,14.00
2019-02-27T04:06:53.119Z,13.10
2019-02-27T04:09:20.226Z,15.17
2019-02-27T04:11:49.054Z,14.93
2019-02-27T04:14:28.044Z,13.70
2019-02-27T04:16:56.850Z,14.00
2019-02-27T04:19:25.553Z,14.23
2019-02-27T04:21:57.721Z,15.97
2019-02-27T04:24:24.810Z,15.80
2019-02-27T04:26:53.534Z,13.77
2019-02-27T04:29:22.278Z,14.20
2019-02-27T04:31:51.062Z,15.53
2019-02-27T04:34:19.810Z,15.77
2019-02-27T04:36:48.623Z,13.60
2019-02-27T04:39:17.363Z,14.63
2019-02-27T04:41:46.094Z,14.00
2019-02-27T04:44:14.828Z,14.27
2019-02-27T04:46:43.558Z,13.87
2019-02-27T04:49:12.293Z,13.93
2019-02-27T04:51:41.013Z,13.23
2019-02-27T04:54:09.828Z,12.67
2019-02-27T04:56:38.525Z,13.53
2019-02-27T04:59:07.338Z,13.60
2019-02-27T05:01:36.681Z,14.17
2019-02-27T05:04:06.182Z,12.13
2019-02-27T05:06:34.946Z,13.37
2019-02-27T05:09:04.784Z,14.10
2019-02-27T05:11:33.496Z,13.03
2019-02-27T05:14:02.201Z,13.63
2019-02-27T05:16:31.006Z,13.13
2019-02-27T05:19:03.616Z,13.47
2019-02-27T05:21:30.186Z,13.97
2019-02-27T05:23:58.973Z,13.20
2019-02-27T05:26:27.849Z,14.87
2019-02-27T05:28:56.665Z,14.10
2019-02-27T05:31:25.406Z,13.63
2019-02-27T05:33:54.135Z,13.50
2019-02-27T05:36:22.944Z,13.33
2019-02-27T05:38:51.756Z,13.90
2019-02-27T05:41:20.519Z,13.07
2019-02-27T05:43:49.308Z,13.80
2019-02-27T05:46:18.133Z,14.57
2019-02-27T05:48:46.951Z,13.80
2019-02-27T05:51:15.680Z,14.20
2019-02-27T05:53:44.418Z,13.63
2019-02-27T05:56:16.499Z,13.17
2019-02-27T05:58:45.372Z,13.70
2019-02-27T06:01:14.101Z,14.70
2019-02-27T06:03:42.818Z,14.20
2019-02-27T06:06:12.375Z,14.27
2019-02-27T06:08:41.195Z,14.30
2019-02-27T06:11:09.936Z,13.87
2019-02-27T06:13:38.678Z,14.67
2019-02-27T06:16:09.149Z,12.83
2019-02-27T06:18:45.290Z,15.63
2019-02-27T06:21:16.386Z,13.67
2019-02-27T06:23:44.561Z,13.47
2019-02-27T06:26:13.382Z,14.47
2019-02-27T06:28:42.162Z,14.37
2019-02-27T06:31:10.914Z,15.07
2019-02-27T06:33:39.642Z,14.10
2019-02-27T06:36:08.588Z,15.70
2019-02-27T06:38:37.434Z,13.43
2019-02-27T06:41:06.163Z,15.17
2019-02-27T06:43:34.883Z,14.53
2019-02-27T06:46:03.578Z,15.70
2019-02-27T06:48:32.318Z,15.77
2019-02-27T06:51:01.648Z,14.30
2019-02-27T06:53:30.417Z,14.20
2019-02-27T06:56:02.727Z,18.40
2019-02-27T06:58:29.628Z,19.87
2019-02-27T07:01:00.999Z,16.50
2019-02-27T07:03:32.800Z,15.27
2019-02-27T07:06:00.159Z,13.90
2019-02-27T07:08:28.974Z,14.47
2019-02-27T07:11:07.210Z,13.83
2019-02-27T07:13:29.886Z,16.97
2019-02-27T07:15:58.796Z,15.57
2019-02-27T07:18:27.572Z,15.33
2019-02-27T07:20:59.274Z,16.17
2019-02-27T07:23:28.136Z,15.37
2019-02-27T07:25:56.954Z,14.57
2019-02-27T07:28:27.035Z,14.67
2019-02-27T07:30:55.752Z,15.23
2019-02-27T07:33:24.550Z,16.93
2019-02-27T07:35:53.250Z,15.17
2019-02-27T07:38:22.277Z,16.50
2019-02-27T07:40:51.090Z,15.00
2019-02-27T07:43:19.809Z,16.97
2019-02-27T07:45:48.519Z,16.33
2019-02-27T07:48:17.233Z,17.23
2019-02-27T07:50:49.127Z,17.57
2019-02-27T07:53:17.771Z,15.77
2019-02-27T07:55:47.485Z,17.53
2019-02-27T07:58:16.303Z,17.33
2019-02-27T08:00:47.128Z,16.43
2019-02-27T08:03:15.596Z,17.67
2019-02-27T08:05:44.358Z,16.47
2019-02-27T08:08:13.072Z,16.63
2019-02-27T08:10:41.794Z,16.20
2019-02-27T08:13:10.528Z,19.00
2019-02-27T08:15:39.387Z,17.60
2019-02-27T08:18:08.242Z,15.57
2019-02-27T08:20:37.147Z,17.60
2019-02-27T08:23:06.993Z,16.83
2019-02-27T08:25:35.871Z,16.57
2019-02-27T08:28:07.378Z,17.10
2019-02-27T08:30:36.127Z,17.97
2019-02-27T08:33:08.142Z,16.87
2019-02-27T08:35:35.459Z,17.03
2019-02-27T08:38:04.260Z,16.90
2019-02-27T08:40:33.036Z,16.53
2019-02-27T08:43:01.760Z,17.33
2019-02-27T08:45:30.499Z,16.03
2019-02-27T08:47:59.338Z,17.90
2019-02-27T08:50:29.256Z,16.83
2019-02-27T08:52:58.626Z,15.77
2019-02-27T08:55:27.363Z,17.20
2019-02-27T08:57:57.036Z,15.77
2019-02-27T09:00:26.087Z,16.53
2019-02-27T09:02:55.724Z,15.23
2019-02-27T09:05:25.005Z,15.27
2019-02-27T09:07:53.784Z,15.80
2019-02-27T09:10:23.196Z,17.37
2019-02-27T09:12:52.963Z,17.20
2019-02-27T09:15:21.751Z,15.63
2019-02-27T09:17:50.480Z,16.57
2019-02-27T09:20:20.447Z,16.13
2019-02-27T09:22:49.514Z,14.73
2019-02-27T09:25:18.245Z,15.50
2019-02-27T09:27:47.024Z,17.10
2019-02-27T09:30:16.077Z,15.60
2019-02-27T09:32:46.019Z,16.30
2019-02-27T09:35:15.089Z,14.93
2019-02-27T09:37:43.838Z,15.70
2019-02-27T09:40:14.113Z,15.30
2019-02-27T09:42:42.850Z,16.07
2019-02-27T09:45:22.501Z,15.27
2019-02-27T09:47:51.526Z,14.57
2019-02-27T09:50:29.198Z,16.07
2019-02-27T09:52:57.994Z,16.07
2019-02-27T09:55:26.825Z,15.60
2019-02-27T09:57:55.632Z,15.50
2019-02-27T10:00:28.863Z,14.87
2019-02-27T10:02:58.252Z,14.63
2019-02-27T10:05:27.164Z,13.93
2019-02-27T10:07:57.549Z,14.33
2019-02-27T10:10:26.421Z,15.37
2019-02-27T10:12:55.180Z,13.87
2019-02-27T10:15:25.223Z,14.70
2019-02-27T10:17:54.470Z,14.23
2019-02-27T10:20:23.231Z,13.20
2019-02-27T10:22:53.285Z,13.93
2019-02-27T10:25:22.444Z,14.10
2019-02-27T10:27:51.291Z,14.43
2019-02-27T10:30:20.131Z,13.53
2019-02-27T10:32:48.946Z,14.20
2019-02-27T10:35:17.797Z,12.50
2019-02-27T10:37:50.346Z,13.07
2019-02-27T10:40:18.044Z,13.10
2019-02-27T10:42:46.797Z,13.80
2019-02-27T10:45:15.639Z,12.83
2019-02-27T10:47:44.632Z,13.03
2019-02-27T10:50:13.421Z,12.53
2019-02-27T10:52:42.215Z,13.80
2019-02-27T10:55:14.189Z,13.23
2019-02-27T10:57:42.073Z,13.53
2019-02-27T11:00:16.209Z,12.87
2019-02-27T11:02:45.187Z,13.30
2019-02-27T11:05:17.809Z,12.77
2019-02-27T11:07:46.629Z,13.33
2019-02-27T11:10:15.889Z,13.27
2019-02-27T11:12:44.772Z,12.13
2019-02-27T11:15:14.339Z,10.77
2019-02-27T11:17:43.057Z,11.37
2019-02-27T11:20:11.954Z,10.83
2019-02-27T11:22:40.881Z,10.80
2019-02-27T11:25:11.010Z,10.87
2019-02-27T11:27:39.825Z,9.77
2019-02-27T11:30:10.713Z,10.27
2019-02-27T11:32:39.541Z,10.13
2019-02-27T11:35:08.281Z,10.80
2019-02-27T11:37:37.086Z,10.73
2019-02-27T11:40:07.844Z,11.63
2019-02-27T11:42:37.890Z,10.83
2019-02-27T11:45:06.980Z,10.60
2019-02-27T11:47:35.801Z,10.97
2019-02-27T11:50:04.897Z,10.13
2019-02-27T11:52:33.664Z,8.87
2019-02-27T11:55:02.399Z,8.83
2019-02-27T11:57:31.313Z,10.03
2019-02-27T12:00:00.326Z,9.60
2019-02-27T12:02:33.863Z,9.27
2019-02-27T12:04:59.709Z,10.63
2019-02-27T12:07:28.518Z,10.80
2019-02-27T12:09:57.260Z,10.57
2019-02-27T12:12:25.973Z,10.17
2019-02-27T12:14:54.809Z,9.77
2019-02-27T12:17:25.733Z,9.63
2019-02-27T12:19:54.060Z,9.73
2019-02-27T12:22:22.802Z,9.47
2019-02-27T12:24:52.898Z,10.90
2019-02-27T12:27:47.441Z,10.97
2019-02-27T12:29:52.439Z,10.77
2019-02-27T12:32:21.969Z,10.93
2019-02-27T12:34:51.321Z,10.50
2019-02-27T12:37:28.186Z,12.70
2019-02-27T12:39:50.571Z,11.13
2019-02-27T12:42:19.382Z,10.67
2019-02-27T12:44:48.165Z,10.43
2019-02-27T12:47:17.009Z,10.63
2019-02-27T12:49:45.823Z,10.70
2019-02-27T12:52:14.547Z,10.53
2019-02-27T12:54:43.376Z,12.37
2019-02-27T12:57:12.193Z,11.00
2019-02-27T12:59:40.939Z,10.93
2019-02-27T13:02:10.889Z,9.40
2019-02-27T13:04:39.787Z,9.50
2019-02-27T13:07:10.770Z,9.40
2019-02-27T13:09:41.324Z,9.90
2019-02-27T13:12:10.078Z,10.77
2019-02-27T13:14:41.805Z,10.20
2019-02-27T13:17:10.628Z,9.77
2019-02-27T13:19:39.389Z,9.83
2019-02-27T13:22:08.190Z,10.27
2019-02-27T13:24:36.933Z,10.13
2019-02-27T13:27:09.054Z,9.53
2019-02-27T13:29:36.186Z,9.30
2019-02-27T13:32:05.056Z,9.37
2019-02-27T13:34:33.952Z,9.87
2019-02-27T13:37:02.736Z,9.87
2019-02-27T13:39:31.540Z,9.63
2019-02-27T13:42:00.298Z,9.33
2019-02-27T13:44:29.089Z,9.70
2019-02-27T13:46:57.796Z,9.03
2019-02-27T13:49:26.591Z,7.50
2019-02-27T13:51:55.385Z,8.23
2019-02-27T13:54:24.134Z,7.50
2019-02-27T13:56:52.996Z,7.70
2019-02-27T13:59:21.723Z,9.00
2019-02-27T14:01:50.590Z,8.47
2019-02-27T14:04:22.637Z,8.17
2019-02-27T14:06:54.559Z,8.73
2019-02-27T14:09:23.312Z,8.90
2019-02-27T14:11:58.371Z,8.87
2019-02-27T14:14:25.350Z,8.47
2019-02-27T14:16:54.101Z,8.30
2019-02-27T14:19:23.902Z,8.17
2019-02-27T14:21:53.333Z,8.27
2019-02-27T14:24:22.067Z,8.83
2019-02-27T14:26:50.876Z,8.40
2019-02-27T14:29:19.621Z,9.03
2019-02-27T14:31:48.456Z,7.83
2019-02-27T14:34:17.190Z,8.03
2019-02-27T14:36:45.960Z,7.97
2019-02-27T14:39:15.603Z,6.97
2019-02-27T14:41:47.948Z,7.03
2019-02-27T14:44:14.847Z,7.60
2019-02-27T14:46:45.024Z,6.80
2019-02-27T14:49:14.154Z,7.07
2019-02-27T14:51:45.993Z,7.17
2019-02-27T14:54:14.821Z,7.53
2019-02-27T14:56:43.616Z,8.30
2019-02-27T14:59:12.395Z,8.20
2019-02-27T15:01:41.248Z,7.97
2019-02-27T15:04:09.981Z,8.10
2019-02-27T15:06:38.847Z,9.77
2019-02-27T15:09:07.732Z,8.83
2019-02-27T15:11:36.569Z,8.33
2019-02-27T15:14:05.309Z,8.10
2019-02-27T15:16:34.126Z,7.70
2019-02-27T15:19:02.904Z,8.03
2019-02-27T15:21:31.908Z,8.63
2019-02-27T15:24:01.424Z,8.53
2019-02-27T15:26:30.889Z,9.10
2019-02-27T15:28:59.605Z,9.70
2019-02-27T15:31:28.353Z,8.70
2019-02-27T15:33:57.099Z,9.27
2019-02-27T15:36:29.301Z,9.63
2019-02-27T15:38:56.295Z,10.07
2019-02-27T15:41:25.009Z,8.93
2019-02-27T15:44:00.142Z,9.87
2019-02-27T15:46:24.224Z,9.67
2019-02-27T15:48:53.045Z,9.50
2019-02-27T15:51:21.828Z,8.97
2019-02-27T15:53:50.852Z,9.20
2019-02-27T15:56:19.564Z,10.57
2019-02-27T15:58:48.307Z,9.93
2019-02-27T16:01:17.078Z,10.17
2019-02-27T16:03:46.711Z,10.00
2019-02-27T16:06:15.548Z,10.23
2019-02-27T16:08:44.382Z,9.67
2019-02-27T16:11:14.059Z,8.93
2019-02-27T16:13:43.566Z,9.10
2019-02-27T16:16:12.396Z,10.03
2019-02-27T16:18:41.182Z,9.70
2019-02-27T16:21:09.883Z,10.83
2019-02-27T16:23:38.634Z,9.57
2019-02-27T16:26:07.368Z,10.47
2019-02-27T16:28:36.156Z,9.90
2019-02-27T16:31:06.186Z,10.23
2019-02-27T16:33:37.089Z,9.63
2019-02-27T16:36:05.883Z,10.80
2019-02-27T16:38:34.655Z,10.60
2019-02-27T16:41:03.422Z,10.67
2019-02-27T16:43:34.784Z,10.00
2019-02-27T16:46:07.760Z,9.93
2019-02-27T16:48:35.480Z,10.23
2019-02-27T16:51:04.271Z,10.90
2019-02-27T16:53:33.092Z,11.30
2019-02-27T16:56:01.830Z,11.43
2019-02-27T16:58:33.000Z,11.97
2019-02-27T17:01:01.124Z,11.47
2019-02-27T17:03:56.403Z,10.93
2019-02-27T17:06:18.411Z,11.77
2019-02-27T17:08:47.243Z,11.80
2019-02-27T17:11:16.016Z,11.60
2019-02-27T17:13:46.925Z,12.20
2019-02-27T17:16:15.326Z,12.43
2019-02-27T17:18:44.212Z,11.50
2019-02-27T17:21:13.023Z,11.57
2019-02-27T17:23:45.366Z,11.83
2019-02-27T17:26:12.317Z,11.57
2019-02-27T17:28:41.128Z,10.50
2019-02-27T17:31:12.186Z,12.40
2019-02-27T17:33:40.416Z,11.10
2019-02-27T17:36:09.207Z,10.77
2019-02-27T17:38:38.053Z,12.23
2019-02-27T17:41:08.936Z,12.13
2019-02-27T17:43:37.269Z,12.87
2019-02-27T17:46:06.048Z,12.17
2019-02-27T17:48:34.848Z,11.07
2019-02-27T17:51:06.518Z,11.87
2019-02-27T17:53:34.191Z,12.07
2019-02-27T17:56:02.989Z,12.47
2019-02-27T17:58:34.893Z,12.17
2019-02-27T18:01:04.303Z,12.43
2019-02-27T18:03:33.131Z,12.70
2019-02-27T18:06:01.943Z,11.40
2019-02-27T18:08:30.873Z,10.83
2019-02-27T18:10:59.738Z,11.80
2019-02-27T18:13:28.478Z,11.80
2019-02-27T18:15:57.705Z,11.50
2019-02-27T18:18:27.569Z,12.10
2019-02-27T18:20:56.757Z,10.63
2019-02-27T18:23:27.044Z,11.43
2019-02-27T18:25:55.972Z,10.10
2019-02-27T18:28:24.779Z,11.03
2019-02-27T18:30:53.834Z,10.33
2019-02-27T18:33:25.196Z,10.67
2019-02-27T18:35:54.615Z,10.17
2019-02-27T18:38:42.632Z,10.90
2019-02-27T18:41:14.422Z,10.07
2019-02-27T18:43:41.922Z,10.60
2019-02-27T18:46:10.811Z,10.80
2019-02-27T18:48:43.523Z,10.47
2019-02-27T18:51:10.046Z,9.63
2019-02-27T18:53:38.958Z,10.20
2019-02-27T18:56:07.763Z,10.57
2019-02-27T18:58:36.529Z,9.87
2019-02-27T19:01:09.524Z,9.70
2019-02-27T19:03:37.396Z,12.30
2019-02-27T19:06:06.268Z,16.07
2019-02-27T19:08:35.142Z,15.30
2019-02-27T19:11:07.104Z,11.63
2019-02-27T19:13:36.020Z,10.90
2019-02-27T19:16:06.594Z,11.27
2019-02-27T19:18:35.469Z,10.90
2019-02-27T19:21:04.285Z,10.17
2019-02-27T19:23:33.055Z,10.93
2019-02-27T19:26:01.821Z,11.03
2019-02-27T19:28:30.582Z,11.80
2019-02-27T19:30:59.341Z,11.17
2019-02-27T19:33:28.372Z,10.60
2019-02-27T19:35:57.510Z,10.30
2019-02-27T19:38:28.235Z,10.77
2019-02-27T19:40:57.195Z,10.83
2019-02-27T19:43:26.139Z,10.23
2019-02-27T19:45:55.012Z,10.10
2019-02-27T19:48:26.281Z,10.37
2019-02-27T19:50:54.421Z,10.57
2019-02-27T19:53:23.308Z,10.37
2019-02-27T19:55:52.146Z,10.20
2019-02-27T19:58:21.095Z,11.10
2019-02-27T20:00:50.014Z,10.40
2019-02-27T20:03:18.921Z,10.03
2019-02-27T20:05:50.650Z,10.27
2019-02-27T20:08:18.545Z,9.83
2019-02-27T20:10:48.881Z,10.13
2019-02-27T20:13:17.888Z,10.70
2019-02-27T20:15:47.098Z,10.03
2019-02-27T20:18:16.477Z,10.57
2019-02-27T20:20:45.625Z,10.83
2019-02-27T20:23:14.560Z,10.93
2019-02-27T20:25:44.492Z,9.93
2019-02-27T20:28:13.563Z,10.23
2019-02-27T20:30:42.442Z,10.47
2019-02-27T20:33:11.449Z,9.93
2019-02-27T20:35:40.372Z,10.17
2019-02-27T20:38:09.342Z,9.90
2019-02-27T20:40:38.337Z,10.63
2019-02-27T20:43:07.322Z,10.50
2019-02-27T20:45:36.228Z,10.17
2019-02-27T20:48:05.474Z,11.10
2019-02-27T20:50:38.967Z,9.63
2019-02-27T20:53:08.132Z,11.33
2019-02-27T20:55:37.100Z,11.27
2019-02-27T20:58:09.077Z,11.10
2019-02-27T21:00:37.921Z,10.70
2019-02-27T21:03:07.497Z,10.20
2019-02-27T21:05:36.752Z,10.10
2019-02-27T21:08:05.676Z,10.73
2019-02-27T21:10:34.606Z,10.90
2019-02-27T21:13:04.731Z,10.70
2019-02-27T21:15:35.167Z,32.50
2019-02-27T21:18:04.032Z,28.77
2019-02-27T21:20:33.292Z,18.83
2019-02-27T21:23:02.577Z,23.17
2019-02-27T21:25:31.358Z,12.20
2019-02-27T21:28:00.105Z,10.73
2019-02-27T21:30:28.929Z,11.17
2019-02-27T21:32:57.710Z,14.37
2019-02-27T21:35:29.809Z,12.10
2019-02-27T21:37:57.732Z,11.03
2019-02-27T21:40:26.580Z,10.23
2019-02-27T21:42:55.421Z,10.87
2019-02-27T21:45:24.552Z,10.50
2019-02-27T21:47:53.414Z,11.70
2019-02-27T21:50:23.388Z,11.27
2019-02-27T21:52:54.387Z,10.60
2019-02-27T21:55:22.781Z,10.53
2019-02-27T21:57:51.727Z,10.53
2019-02-27T22:00:22.284Z,9.50
2019-02-27T22:02:51.042Z,11.20
2019-02-27T22:05:19.930Z,10.40
2019-02-27T22:07:48.773Z,10.37
2019-02-27T22:10:19.724Z,10.80
2019-02-27T22:12:49.399Z,11.00
2019-02-27T22:15:22.915Z,10.63
2019-02-27T22:17:50.054Z,11.30
2019-02-27T22:20:18.799Z,10.43
2019-02-27T22:22:47.686Z,11.13
2019-02-27T22:25:16.429Z,10.57
2019-02-27T22:27:45.929Z,10.77
2019-02-27T22:30:16.233Z,10.33
2019-02-27T22:32:47.631Z,10.40
2019-02-27T22:35:15.427Z,10.30
2019-02-27T22:37:44.258Z,10.53
2019-02-27T22:40:13.913Z,11.07
2019-02-27T22:42:45.416Z,10.67
2019-02-27T22:45:13.749Z,11.60
2019-02-27T22:47:42.468Z,10.23
2019-02-27T22:50:12.160Z,10.73
2019-02-27T22:52:40.879Z,11.53
2019-02-27T22:55:10.698Z,11.40
2019-02-27T22:57:39.696Z,10.87
2019-02-27T23:00:29.479Z,11.13
2019-02-27T23:02:58.556Z,11.40
2019-02-27T23:05:27.400Z,11.73
2019-02-27T23:07:57.824Z,11.63
2019-02-27T23:10:28.171Z,12.83
2019-02-27T23:12:57.056Z,12.80
2019-02-27T23:15:25.791Z,13.37
2019-02-27T23:17:54.480Z,13.50
2019-02-27T23:20:23.215Z,13.27
2019-02-27T23:22:52.006Z,13.83
2019-02-27T23:25:20.795Z,13.20
2019-02-27T23:27:49.570Z,13.83
2019-02-27T23:30:18.296Z,14.20
2019-02-27T23:32:47.016Z,13.23
2019-02-27T23:35:16.714Z,15.07
2019-02-27T23:37:45.660Z,14.90
2019-02-27T23:40:17.398Z,15.37
2019-02-27T23:42:44.890Z,15.50
2019-02-27T23:45:13.707Z,16.53
2019-02-27T23:47:42.410Z,14.70
2019-02-27T23:50:12.015Z,15.73
2019-02-27T23:52:40.934Z,15.67
2019-02-27T23:55:09.944Z,17.10
2019-02-27T23:57:39.656Z,16.97
